Time;durP1;ratioP1;P1;durP2;ratioP2;P2;SDS_P1;SDS_P2;PMS_P1;PMS_P2;Temp;Humidity;BMP_temperature;BMP_pressure;BME280_temperature;BME280_humidity;BME280_pressure;Samples;Min_cycle;Max_cycle;Signal;HPM_P1;HPM_P2
2023/01/09 00:00:26;;;;;;;7.07;5.35;;;6.00;91.50;;;;;;5106756;28;20201;-86
2023/01/09 00:02:55;;;;;;;8.45;6.03;;;5.90;92.10;;;;;;5100672;28;20754;-86
2023/01/09 00:05:22;;;;;;;7.83;4.93;;;5.80;91.80;;;;;;5099746;28;20196;-86
2023/01/09 00:07:49;;;;;;;8.15;5.10;;;5.70;92.40;;;;;;5096184;28;20200;-85
2023/01/09 00:10:15;;;;;;;6.65;4.82;;;5.70;92.20;;;;;;5093307;28;20224;-86
2023/01/09 00:12:42;;;;;;;8.27;5.33;;;5.60;91.90;;;;;;5092002;28;20192;-86
2023/01/09 00:15:11;;;;;;;6.00;4.60;;;5.60;92.00;;;;;;5091813;28;20211;-86
2023/01/09 00:17:37;;;;;;;5.30;4.60;;;5.50;92.20;;;;;;5096139;28;20195;-86
2023/01/09 00:20:08;;;;;;;5.63;4.23;;;5.50;92.50;;;;;;5092111;28;20583;-85
2023/01/09 00:22:36;;;;;;;5.53;4.32;;;5.50;92.50;;;;;;5094778;28;20277;-86
2023/01/09 00:25:03;;;;;;;5.78;4.55;;;5.50;92.50;;;;;;5096348;28;20192;-86
2023/01/09 00:27:31;;;;;;;5.93;4.67;;;5.40;92.70;;;;;;5101285;28;20211;-86
2023/01/09 00:29:58;;;;;;;5.43;4.53;;;5.50;93.00;;;;;;5099700;28;20217;-86
2023/01/09 00:32:25;;;;;;;5.27;4.57;;;5.50;92.80;;;;;;5096147;28;20219;-87
2023/01/09 00:34:52;;;;;;;5.53;4.70;;;5.50;92.30;;;;;;5098038;28;20208;-86
2023/01/09 00:37:20;;;;;;;5.53;4.38;;;5.60;91.90;;;;;;5096678;28;20200;-86
2023/01/09 00:39:47;;;;;;;6.03;4.70;;;5.70;92.00;;;;;;5093211;28;20207;-86
2023/01/09 00:42:17;;;;;;;6.20;4.72;;;5.70;91.90;;;;;;5096604;28;20211;-86
2023/01/09 00:44:47;;;;;;;5.43;4.22;;;5.70;92.00;;;;;;5103690;28;20211;-86
2023/01/09 00:47:18;;;;;;;5.50;3.77;;;5.80;92.30;;;;;;5086970;28;20200;-86
2023/01/09 00:49:46;;;;;;;5.60;3.78;;;5.90;92.00;;;;;;5096972;28;20220;-86
2023/01/09 00:52:14;;;;;;;8.07;4.78;;;6.00;91.70;;;;;;5103539;28;20207;-87
2023/01/09 00:54:43;;;;;;;6.55;4.22;;;6.00;92.10;;;;;;5100412;28;20203;-87
2023/01/09 00:57:12;;;;;;;4.97;3.90;;;6.00;92.30;;;;;;5098033;28;20690;-86
2023/01/09 00:59:39;;;;;;;4.57;3.75;;;6.00;92.40;;;;;;5096906;28;20808;-86
2023/01/09 01:02:06;;;;;;;5.05;4.32;;;6.00;92.20;;;;;;5095262;28;20218;-86
2023/01/09 01:10:03;;;;;;;5.70;4.25;;;6.20;91.60;;;;;;5100739;28;20235;-86
2023/01/09 01:12:30;;;;;;;5.93;4.45;;;6.20;92.20;;;;;;5091223;28;20745;-87
2023/01/09 01:14:57;;;;;;;4.82;3.72;;;6.20;92.20;;;;;;5097973;28;20209;-86
2023/01/09 01:17:24;;;;;;;5.95;4.20;;;6.10;92.40;;;;;;5094139;28;20200;-86
2023/01/09 01:19:51;;;;;;;6.10;4.20;;;6.10;92.50;;;;;;5097899;28;20299;-86
2023/01/09 01:22:18;;;;;;;6.60;4.50;;;6.20;92.30;;;;;;5093892;28;20201;-86
2023/01/09 01:24:44;;;;;;;4.25;3.85;;;6.30;92.10;;;;;;5101192;28;20197;-86
2023/01/09 01:27:15;;;;;;;7.40;4.35;;;6.20;92.00;;;;;;5096338;28;20231;-86
2023/01/09 01:29:42;;;;;;;4.35;3.85;;;6.30;91.90;;;;;;5094509;28;20216;-86
2023/01/09 01:32:08;;;;;;;6.38;4.30;;;6.20;92.20;;;;;;5092883;28;20216;-86
2023/01/09 01:34:35;;;;;;;5.90;4.18;;;6.30;92.10;;;;;;5095200;28;20588;-86
2023/01/09 01:37:02;;;;;;;6.25;4.07;;;6.40;91.80;;;;;;5101273;28;20203;-85
2023/01/09 01:39:29;;;;;;;6.07;4.32;;;6.30;92.00;;;;;;5102010;28;20210;-86
2023/01/09 01:41:56;;;;;;;5.90;4.47;;;6.30;91.80;;;;;;5100205;27;20211;-86
2023/01/09 01:45:00;;;;;;;6.13;3.88;;;6.40;91.90;;;;;;5106095;28;20201;-86
2023/01/09 01:47:31;;;;;;;4.93;3.70;;;6.20;92.00;;;;;;5099989;28;20203;-85
2023/01/09 01:50:00;;;;;;;5.22;4.07;;;6.20;92.30;;;;;;5106416;28;20208;-85
2023/01/09 01:52:29;;;;;;;5.65;4.47;;;6.10;93.10;;;;;;5091170;28;20213;-85
2023/01/09 01:54:55;;;;;;;5.00;4.13;;;6.00;93.10;;;;;;5094284;28;20201;-86
2023/01/09 01:57:23;;;;;;;5.55;4.35;;;6.00;93.10;;;;;;5097402;28;20204;-86
2023/01/09 01:59:53;;;;;;;5.28;4.22;;;6.10;93.30;;;;;;5098088;28;20661;-86
2023/01/09 02:02:26;;;;;;;6.00;4.20;;;6.10;93.20;;;;;;5094468;28;20224;-86
2023/01/09 02:04:55;;;;;;;6.57;4.30;;;6.20;93.10;;;;;;5095555;28;20223;-86
2023/01/09 02:07:22;;;;;;;5.72;4.20;;;6.20;93.20;;;;;;5093193;27;20200;-86
2023/01/09 02:09:49;;;;;;;5.32;3.92;;;6.20;93.10;;;;;;5098057;28;20224;-86
2023/01/09 02:12:19;;;;;;;5.57;4.45;;;6.10;93.30;;;;;;5102341;28;20212;-85
2023/01/09 02:14:47;;;;;;;5.30;4.15;;;6.10;93.30;;;;;;5099762;28;20201;-85
2023/01/09 02:17:24;;;;;;;6.57;4.22;;;6.10;93.30;;;;;;5096509;27;20209;-86
2023/01/09 02:20:26;;;;;;;5.35;4.00;;;6.10;93.40;;;;;;5104809;28;20222;-86
2023/01/09 02:23:03;;;;;;;4.55;3.60;;;6.00;93.40;;;;;;5097030;28;20219;-86
2023/01/09 02:25:47;;;;;;;5.60;4.15;;;6.00;93.70;;;;;;5096673;27;20228;-86
2023/01/09 02:28:40;;;;;;;5.50;4.25;;;6.10;93.60;;;;;;5100218;28;20204;-86
2023/01/09 02:31:13;;;;;;;6.45;3.78;;;6.20;93.50;;;;;;5101225;28;20243;-86
2023/01/09 02:33:54;;;;;;;5.63;4.00;;;6.20;93.20;;;;;;5097772;28;20653;-86
2023/01/09 02:36:36;;;;;;;5.95;4.20;;;6.10;93.60;;;;;;5096088;28;20204;-86
2023/01/09 02:39:15;;;;;;;5.55;3.88;;;6.00;94.20;;;;;;5096723;28;20212;-86
2023/01/09 02:41:48;;;;;;;5.30;3.92;;;6.00;94.30;;;;;;5097715;28;20204;-86
2023/01/09 02:44:21;;;;;;;4.38;3.58;;;6.00;94.60;;;;;;5102374;28;20208;-86
2023/01/09 02:47:00;;;;;;;3.85;3.28;;;6.00;94.50;;;;;;5095026;28;20228;-86
2023/01/09 02:49:28;;;;;;;5.45;3.70;;;6.00;94.80;;;;;;5107466;27;20207;-86
2023/01/09 02:52:04;;;;;;;4.00;3.50;;;6.00;94.50;;;;;;5098223;28;20677;-86
2023/01/09 02:54:46;;;;;;;4.38;3.53;;;5.90;94.50;;;;;;5103525;28;20208;-86
2023/01/09 02:57:29;;;;;;;3.65;3.28;;;5.80;95.20;;;;;;5105116;27;20201;-86
2023/01/09 03:00:05;;;;;;;4.47;3.50;;;5.80;95.40;;;;;;5098814;28;20208;-86
2023/01/09 03:02:43;;;;;;;8.98;3.70;;;5.70;95.90;;;;;;5097221;28;20208;-86
2023/01/09 03:05:18;;;;;;;4.80;3.55;;;5.80;96.10;;;;;;5095404;27;20208;-86
2023/01/09 03:07:49;;;;;;;4.40;3.38;;;6.00;96.00;;;;;;5104869;27;20222;-86
2023/01/09 03:10:20;;;;;;;4.20;3.50;;;6.00;96.10;;;;;;5100720;28;20220;-86
2023/01/09 03:12:51;;;;;;;4.43;3.80;;;5.90;96.50;;;;;;5101083;28;20193;-86
2023/01/09 03:15:20;;;;;;;4.07;3.63;;;5.80;96.70;;;;;;5103873;27;20206;-85
2023/01/09 03:17:50;;;;;;;4.13;3.50;;;5.70;97.50;;;;;;5105980;27;20569;-86
2023/01/09 03:20:21;;;;;;;3.83;3.42;;;5.60;98.10;;;;;;5099864;28;20205;-86
2023/01/09 03:22:54;;;;;;;4.07;3.30;;;5.60;98.50;;;;;;5098628;28;20231;-86
2023/01/09 03:25:21;;;;;;;4.40;3.83;;;5.60;98.60;;;;;;5097509;27;20246;-86
2023/01/09 03:27:49;;;;;;;4.28;3.42;;;5.60;98.90;;;;;;5097779;27;20196;-86
2023/01/09 03:30:16;;;;;;;4.30;3.90;;;5.70;99.10;;;;;;5098452;27;20591;-86
2023/01/09 03:32:43;;;;;;;5.93;3.70;;;5.80;98.80;;;;;;5098887;28;20210;-86
2023/01/09 03:35:11;;;;;;;6.70;3.90;;;5.80;98.40;;;;;;5098353;27;20200;-86
2023/01/09 03:37:38;;;;;;;4.35;3.38;;;5.70;98.60;;;;;;5096130;28;20200;-86
2023/01/09 03:40:06;;;;;;;4.35;3.60;;;5.70;99.10;;;;;;5095797;28;20213;-86
2023/01/09 03:42:33;;;;;;;4.63;3.57;;;5.60;99.50;;;;;;5102111;28;20606;-86
2023/01/09 03:44:59;;;;;;;3.78;3.35;;;5.50;99.90;;;;;;5095226;28;20216;-86
2023/01/09 03:47:26;;;;;;;4.47;3.38;;;5.50;99.90;;;;;;5098562;28;20204;-86
2023/01/09 03:49:53;;;;;;;3.77;3.37;;;5.50;99.90;;;;;;5098109;28;20207;-85
2023/01/09 03:52:21;;;;;;;4.55;3.70;;;5.60;99.90;;;;;;5101328;28;20203;-86
2023/01/09 03:54:48;;;;;;;4.88;3.83;;;5.50;99.90;;;;;;5102174;27;20203;-86
2023/01/09 03:57:15;;;;;;;3.55;3.25;;;5.50;99.90;;;;;;5097917;28;20215;-86
2023/01/09 03:59:41;;;;;;;5.30;3.80;;;5.60;99.90;;;;;;5097023;28;20201;-86
2023/01/09 04:02:09;;;;;;;4.37;3.70;;;5.70;99.90;;;;;;5094269;28;20652;-86
2023/01/09 04:04:35;;;;;;;5.63;3.20;;;5.60;99.90;;;;;;5108427;27;20201;-86
2023/01/09 04:07:02;;;;;;;5.10;3.67;;;5.70;99.90;;;;;;5097233;28;20200;-85
2023/01/09 04:09:31;;;;;;;4.65;3.42;;;5.80;99.90;;;;;;5102434;28;20204;-85
2023/01/09 04:11:57;;;;;;;5.90;3.83;;;5.70;99.90;;;;;;5094346;27;20220;-86
2023/01/09 04:14:24;;;;;;;3.97;3.60;;;5.70;99.90;;;;;;5099900;27;20206;-86
2023/01/09 04:16:51;;;;;;;4.60;3.50;;;5.60;99.90;;;;;;5100022;28;20419;-85
2023/01/09 04:19:18;;;;;;;3.83;3.22;;;5.60;99.90;;;;;;5096510;28;20196;-86
2023/01/09 04:21:44;;;;;;;3.40;2.63;;;5.70;99.90;;;;;;5096878;28;20216;-86
2023/01/09 04:24:11;;;;;;;3.08;2.78;;;5.80;99.90;;;;;;5101295;28;20230;-86
2023/01/09 04:26:40;;;;;;;3.13;2.70;;;5.90;99.90;;;;;;5094699;28;20229;-86
2023/01/09 04:29:06;;;;;;;4.00;2.70;;;6.00;99.90;;;;;;5090727;28;20196;-86
2023/01/09 04:31:33;;;;;;;3.72;2.90;;;6.10;99.90;;;;;;5093792;28;20239;-86
2023/01/09 04:34:00;;;;;;;2.90;2.53;;;6.10;99.80;;;;;;5105713;27;20204;-86
2023/01/09 04:36:26;;;;;;;3.50;2.83;;;6.10;99.90;;;;;;5099611;28;20215;-86
2023/01/09 04:38:53;;;;;;;2.47;2.28;;;6.10;99.90;;;;;;5093881;28;20555;-85
2023/01/09 04:44:02;;;;;;;3.00;2.60;;;6.10;99.90;;;;;;5093937;28;20246;-86
2023/01/09 04:46:29;;;;;;;2.63;2.40;;;6.10;99.90;;;;;;5108942;28;20572;-86
2023/01/09 04:48:56;;;;;;;2.92;2.65;;;6.10;99.90;;;;;;5102687;28;20209;-86
2023/01/09 04:51:22;;;;;;;3.17;2.22;;;6.10;99.90;;;;;;5098899;28;20616;-86
2023/01/09 04:53:49;;;;;;;2.95;2.50;;;6.10;99.90;;;;;;5100823;28;20218;-86
2023/01/09 04:56:16;;;;;;;5.20;2.17;;;6.20;99.90;;;;;;5097559;28;20210;-86
2023/01/09 04:58:43;;;;;;;2.70;1.85;;;6.20;99.90;;;;;;5111378;28;20199;-86
2023/01/09 05:01:11;;;;;;;2.53;2.00;;;6.30;99.80;;;;;;5097168;28;20207;-85
2023/01/09 05:03:37;;;;;;;2.10;1.90;;;6.40;99.40;;;;;;5105115;28;20192;-85
2023/01/09 05:06:04;;;;;;;3.83;1.90;;;6.50;99.60;;;;;;5100246;28;20192;-86
2023/01/09 05:08:31;;;;;;;2.17;1.67;;;6.50;99.40;;;;;;5099279;28;20200;-86
2023/01/09 05:10:59;;;;;;;1.65;1.50;;;6.60;99.10;;;;;;5099483;28;20227;-86
2023/01/09 05:13:26;;;;;;;2.05;1.40;;;6.80;98.70;;;;;;5098541;27;20366;-86
2023/01/09 05:15:52;;;;;;;1.17;1.02;;;6.80;98.50;;;;;;5108905;27;20210;-85
2023/01/09 05:18:21;;;;;;;1.30;1.20;;;6.90;98.30;;;;;;5097908;28;20230;-86
2023/01/09 05:20:47;;;;;;;1.08;1.00;;;7.00;97.70;;;;;;5094497;28;20211;-85
2023/01/09 05:23:14;;;;;;;0.98;0.90;;;7.10;97.50;;;;;;5096733;28;20235;-86
2023/01/09 05:25:41;;;;;;;0.80;0.80;;;7.30;97.30;;;;;;5106028;27;20356;-86
2023/01/09 05:28:07;;;;;;;0.80;0.80;;;7.30;96.70;;;;;;5098877;27;20211;-86
2023/01/09 05:30:34;;;;;;;0.82;0.80;;;7.40;96.10;;;;;;5103374;27;20221;-86
2023/01/09 05:33:01;;;;;;;0.60;0.60;;;7.40;95.60;;;;;;5097828;27;20219;-86
2023/01/09 05:35:29;;;;;;;0.60;0.60;;;7.50;95.60;;;;;;5099351;28;20204;-86
2023/01/09 05:37:57;;;;;;;0.90;0.90;;;7.50;95.60;;;;;;5105442;27;20208;-87
2023/01/09 05:40:24;;;;;;;0.80;0.80;;;7.50;95.30;;;;;;5098812;27;20228;-87
2023/01/09 05:42:50;;;;;;;0.68;0.68;;;7.60;94.60;;;;;;5105676;28;20592;-88
2023/01/09 05:45:17;;;;;;;0.63;0.63;;;7.50;94.50;;;;;;5105440;27;20205;-86
2023/01/09 05:47:45;;;;;;;0.75;0.75;;;7.50;94.30;;;;;;5108603;27;20207;-87
2023/01/09 05:50:12;;;;;;;0.57;0.57;;;7.50;94.40;;;;;;5102989;27;20212;-87
2023/01/09 05:52:40;;;;;;;0.68;0.68;;;7.50;94.20;;;;;;5099514;28;20227;-86
2023/01/09 05:55:08;;;;;;;1.05;0.90;;;7.60;93.80;;;;;;5108736;28;20213;-85
2023/01/09 05:57:35;;;;;;;1.73;0.70;;;7.50;92.90;;;;;;5104253;27;20223;-86
2023/01/09 06:00:02;;;;;;;1.00;1.00;;;7.60;92.90;;;;;;5102853;27;20563;-87
2023/01/09 06:02:28;;;;;;;0.90;0.90;;;7.40;93.00;;;;;;5101750;27;20203;-88
2023/01/09 06:04:55;;;;;;;0.60;0.60;;;7.40;92.50;;;;;;5101199;27;20219;-87
2023/01/09 06:07:22;;;;;;;0.90;0.90;;;7.40;92.20;;;;;;5098331;28;20700;-87
2023/01/09 06:09:50;;;;;;;0.95;0.85;;;7.30;91.90;;;;;;5104236;27;20249;-87
2023/01/09 06:12:17;;;;;;;0.50;0.50;;;7.40;91.80;;;;;;5096193;28;20224;-88
2023/01/09 06:14:44;;;;;;;0.93;0.93;;;7.40;91.50;;;;;;5093752;28;20211;-86
2023/01/09 06:17:11;;;;;;;0.60;0.60;;;7.30;91.70;;;;;;5096348;28;20208;-87
2023/01/09 06:19:38;;;;;;;0.73;0.73;;;7.30;91.50;;;;;;5098393;28;20204;-88
2023/01/09 06:22:04;;;;;;;0.60;0.60;;;7.30;91.20;;;;;;5096203;27;20211;-88
2023/01/09 06:24:31;;;;;;;0.88;0.88;;;7.20;91.00;;;;;;5100669;28;20211;-87
2023/01/09 06:27:00;;;;;;;0.70;0.70;;;7.20;90.50;;;;;;5102397;27;20227;-87
2023/01/09 06:29:26;;;;;;;1.00;1.00;;;7.30;90.10;;;;;;5093242;28;20738;-87
2023/01/09 06:32:06;;;;;;;0.85;0.85;;;7.30;90.10;;;;;;5103363;28;20220;-86
2023/01/09 06:34:33;;;;;;;0.85;0.77;;;7.20;90.10;;;;;;5097567;28;20208;-86
2023/01/09 06:37:00;;;;;;;0.80;0.80;;;7.20;87.60;;;;;;5096865;28;20219;-85
2023/01/09 06:39:27;;;;;;;0.80;0.80;;;7.30;88.00;;;;;;5100535;27;20234;-86
2023/01/09 06:41:54;;;;;;;3.03;0.80;;;7.20;88.20;;;;;;5096488;28;20212;-86
2023/01/09 06:44:22;;;;;;;0.90;0.90;;;7.20;86.60;;;;;;5096485;27;20196;-86
2023/01/09 06:46:49;;;;;;;1.93;0.70;;;7.20;88.50;;;;;;5096990;28;20205;-86
2023/01/09 06:49:16;;;;;;;0.88;0.80;;;7.20;88.30;;;;;;5099301;28;20207;-85
2023/01/09 06:51:43;;;;;;;0.95;0.82;;;7.20;88.10;;;;;;5096507;27;20727;-86
2023/01/09 06:54:10;;;;;;;0.57;0.57;;;7.10;90.10;;;;;;5103719;28;20203;-86
2023/01/09 06:56:37;;;;;;;0.67;0.60;;;7.10;88.20;;;;;;5100558;28;20207;-86
2023/01/09 06:59:03;;;;;;;0.80;0.80;;;7.10;90.10;;;;;;5097192;28;20204;-86
2023/01/09 07:01:31;;;;;;;0.97;0.83;;;7.00;90.30;;;;;;5105783;27;20203;-83
2023/01/09 07:03:58;;;;;;;0.70;0.60;;;7.00;89.20;;;;;;5102351;27;20215;-84
2023/01/09 07:06:25;;;;;;;0.70;0.70;;;7.00;90.00;;;;;;5094764;27;20204;-85
2023/01/09 07:08:52;;;;;;;0.50;0.50;;;6.90;90.00;;;;;;5104079;27;20203;-85
2023/01/09 07:11:19;;;;;;;0.90;0.90;;;6.90;90.00;;;;;;5104475;27;20230;-85
2023/01/09 07:17:13;;;;;;;0.50;0.50;;;6.90;90.00;;;;;;5089716;28;20215;-86
2023/01/09 07:19:40;;;;;;;2.67;0.70;;;6.90;90.00;;;;;;5096403;28;20213;-86
2023/01/09 07:22:07;;;;;;;0.60;0.60;;;6.90;90.00;;;;;;5096982;28;20191;-85
2023/01/09 07:24:33;;;;;;;1.75;0.70;;;6.90;90.00;;;;;;5093749;27;20209;-86
2023/01/09 07:27:05;;;;;;;0.90;0.90;;;6.90;90.00;;;;;;5094784;27;20245;-88
2023/01/09 07:29:32;;;;;;;0.90;0.90;;;6.90;90.00;;;;;;5101587;28;20294;-88
2023/01/09 07:31:59;;;;;;;0.75;0.75;;;6.90;90.00;;;;;;5099030;28;20221;-85
2023/01/09 07:34:27;;;;;;;0.70;0.70;;;6.90;90.00;;;;;;5104745;28;20616;-85
2023/01/09 07:36:54;;;;;;;0.63;0.63;;;6.90;89.80;;;;;;5096529;28;20204;-87
2023/01/09 07:39:20;;;;;;;0.80;0.80;;;6.90;89.40;;;;;;5102134;27;20598;-85
2023/01/09 07:41:47;;;;;;;0.60;0.60;;;6.80;87.80;;;;;;5100207;28;20213;-85
2023/01/09 07:44:15;;;;;;;1.02;0.80;;;6.80;88.30;;;;;;5096283;28;20672;-86
2023/01/09 07:46:41;;;;;;;1.00;0.87;;;6.80;88.30;;;;;;5098877;27;20200;-85
2023/01/09 07:49:08;;;;;;;1.10;0.80;;;6.80;88.20;;;;;;5099251;28;20204;-85
2023/01/09 07:51:41;;;;;;;0.70;0.70;;;6.80;89.10;;;;;;5097529;28;20601;-86
2023/01/09 07:54:08;;;;;;;1.00;1.00;;;6.80;90.00;;;;;;5101680;28;20273;-85
2023/01/09 07:56:35;;;;;;;1.27;0.80;;;6.90;89.30;;;;;;5100591;27;20214;-85
2023/01/09 07:59:02;;;;;;;0.95;0.70;;;6.80;89.80;;;;;;5096453;28;20200;-87
2023/01/09 08:01:29;;;;;;;0.85;0.70;;;6.80;90.00;;;;;;5096848;28;20204;-88
2023/01/09 08:03:56;;;;;;;0.57;0.57;;;6.80;90.00;;;;;;5096613;27;20668;-87
2023/01/09 08:06:23;;;;;;;1.60;0.70;;;6.80;90.00;;;;;;5095092;28;20199;-87
2023/01/09 08:08:51;;;;;;;0.82;0.82;;;6.80;90.00;;;;;;5094630;28;20204;-87
2023/01/09 08:11:18;;;;;;;0.60;0.60;;;6.80;90.00;;;;;;5097289;28;20207;-87
2023/01/09 08:13:45;;;;;;;0.85;0.85;;;6.80;90.00;;;;;;5094897;28;20716;-87
2023/01/09 08:16:12;;;;;;;1.60;0.85;;;6.70;90.00;;;;;;5097303;28;20208;-87
2023/01/09 08:18:39;;;;;;;0.75;0.70;;;6.80;90.00;;;;;;5097635;28;20208;-87
2023/01/09 08:21:06;;;;;;;0.63;0.60;;;6.90;87.90;;;;;;5102657;27;20575;-88
2023/01/09 08:23:33;;;;;;;0.60;0.60;;;6.80;87.20;;;;;;5099414;28;20219;-87
2023/01/09 08:26:01;;;;;;;1.73;0.93;;;6.80;87.70;;;;;;5102886;28;20242;-85
2023/01/09 08:28:27;;;;;;;0.70;0.70;;;6.70;85.80;;;;;;5094512;28;20204;-85
2023/01/09 08:30:54;;;;;;;0.90;0.90;;;6.70;86.70;;;;;;5094024;28;20205;-87
2023/01/09 08:33:21;;;;;;;0.90;0.70;;;6.70;85.30;;;;;;5100437;28;20604;-86
2023/01/09 08:35:48;;;;;;;1.02;1.02;;;6.80;84.30;;;;;;5096937;28;20215;-87
2023/01/09 08:38:15;;;;;;;1.37;0.70;;;6.80;85.20;;;;;;5097230;28;20582;-87
2023/01/09 08:40:42;;;;;;;1.10;1.00;;;6.70;82.90;;;;;;5100609;28;20203;-84
2023/01/09 08:48:39;;;;;;;1.27;1.17;;;6.80;80.80;;;;;;5103012;27;20210;-87
2023/01/09 08:51:06;;;;;;;0.90;0.80;;;6.80;81.40;;;;;;5100965;28;20380;-87
2023/01/09 08:53:33;;;;;;;1.07;0.90;;;6.70;79.10;;;;;;5101025;28;20238;-87
2023/01/09 08:56:00;;;;;;;0.70;0.70;;;6.70;79.00;;;;;;5102508;27;20204;-86
2023/01/09 08:58:28;;;;;;;1.40;0.90;;;6.60;79.00;;;;;;5109582;27;20202;-86
2023/01/09 09:00:57;;;;;;;0.80;0.80;;;6.70;79.70;;;;;;5100252;28;20738;-87
2023/01/09 09:03:24;;;;;;;1.00;1.00;;;6.70;78.10;;;;;;5101617;27;20207;-85
2023/01/09 09:05:51;;;;;;;0.80;0.80;;;6.60;75.90;;;;;;5101330;28;20195;-87
2023/01/09 09:08:19;;;;;;;0.93;0.93;;;6.70;76.50;;;;;;5106132;27;20204;-86
2023/01/09 09:10:46;;;;;;;2.20;1.20;;;6.90;74.60;;;;;;5104281;28;20208;-86
2023/01/09 09:13:13;;;;;;;1.63;1.13;;;6.90;73.70;;;;;;5105685;27;20303;-85
2023/01/09 09:15:41;;;;;;;1.97;0.93;;;6.90;69.80;;;;;;5102528;28;20216;-84
2023/01/09 09:18:08;;;;;;;0.77;0.77;;;6.90;68.40;;;;;;5102141;28;20208;-86
2023/01/09 09:20:36;;;;;;;1.08;0.63;;;6.90;68.00;;;;;;5106041;27;20215;-87
2023/01/09 09:23:03;;;;;;;1.25;0.80;;;7.00;67.10;;;;;;5103930;27;20224;-87
2023/01/09 09:25:30;;;;;;;2.47;1.00;;;6.90;66.00;;;;;;5102736;28;20223;-87
2023/01/09 09:27:59;;;;;;;2.75;1.20;;;6.80;67.30;;;;;;5102806;28;20201;-86
2023/01/09 09:30:26;;;;;;;3.53;0.80;;;6.80;63.50;;;;;;5105005;27;20667;-86
2023/01/09 09:32:55;;;;;;;2.60;1.00;;;6.70;64.70;;;;;;5100189;28;20738;-87
2023/01/09 09:35:22;;;;;;;3.50;1.00;;;6.70;64.40;;;;;;5103582;28;20208;-87
2023/01/09 09:37:58;;;;;;;1.48;0.90;;;6.80;62.80;;;;;;5102361;28;20209;-87
2023/01/09 09:40:38;;;;;;;1.48;0.73;;;7.00;62.60;;;;;;5113592;27;20211;-87
2023/01/09 09:46:23;;;;;;;2.47;1.10;;;7.50;57.00;;;;;;5100143;28;20199;-87
2023/01/09 09:48:55;;;;;;;1.70;1.30;;;7.30;56.10;;;;;;5100861;28;20577;-86
2023/01/09 09:51:35;;;;;;;1.23;0.60;;;7.20;58.90;;;;;;5097274;28;20699;-88
2023/01/09 09:54:06;;;;;;;2.38;1.00;;;7.00;58.30;;;;;;5095041;28;20212;-87
2023/01/09 09:56:40;;;;;;;0.80;0.80;;;7.00;59.10;;;;;;5107490;27;20204;-87
2023/01/09 09:59:13;;;;;;;5.38;0.90;;;7.00;61.80;;;;;;5099549;27;20204;-86
2023/01/09 10:01:42;;;;;;;3.33;1.05;;;7.10;60.90;;;;;;5103008;28;20226;-87
2023/01/09 10:04:13;;;;;;;1.45;0.98;;;7.10;62.40;;;;;;5100130;27;20205;-86
2023/01/09 10:06:43;;;;;;;1.40;0.90;;;7.00;59.50;;;;;;5100417;27;20200;-87
2023/01/09 10:09:16;;;;;;;2.42;0.80;;;7.10;60.70;;;;;;5098452;28;20283;-86
2023/01/09 10:11:51;;;;;;;1.08;0.90;;;7.10;58.90;;;;;;5097541;28;20201;-87
2023/01/09 10:14:18;;;;;;;1.88;0.75;;;7.10;59.20;;;;;;5100806;27;20206;-87
2023/01/09 10:17:02;;;;;;;1.90;0.82;;;7.10;58.80;;;;;;5098788;27;20204;-87
2023/01/09 10:19:46;;;;;;;2.65;1.10;;;7.10;60.40;;;;;;5103890;28;20210;-87
2023/01/09 10:22:26;;;;;;;1.30;1.00;;;7.10;57.80;;;;;;5102959;27;20319;-87
2023/01/09 10:25:05;;;;;;;1.92;1.23;;;7.10;57.70;;;;;;5098991;28;20766;-86
2023/01/09 10:27:48;;;;;;;1.40;1.10;;;7.10;57.80;;;;;;5100242;28;20226;-87
2023/01/09 10:30:27;;;;;;;1.83;1.17;;;7.10;57.80;;;;;;5098042;28;20237;-87
2023/01/09 10:33:01;;;;;;;2.15;1.20;;;7.10;56.60;;;;;;5102258;27;20588;-88
2023/01/09 10:35:43;;;;;;;2.15;0.98;;;7.20;56.80;;;;;;5097700;27;20215;-87
2023/01/09 10:38:14;;;;;;;2.42;0.98;;;7.20;55.90;;;;;;5106467;28;20204;-87
2023/01/09 10:40:46;;;;;;;2.10;1.10;;;7.20;55.70;;;;;;5101318;28;20672;-87
2023/01/09 10:43:29;;;;;;;3.22;0.98;;;7.40;55.90;;;;;;5108416;28;20578;-87
2023/01/09 10:46:00;;;;;;;2.25;1.00;;;7.40;55.80;;;;;;5101796;28;20212;-86
2023/01/09 10:48:33;;;;;;;3.83;1.20;;;7.40;53.50;;;;;;5097278;27;20551;-88
2023/01/09 10:51:04;;;;;;;3.88;1.40;;;7.30;53.80;;;;;;5096269;28;20213;-88
2023/01/09 10:53:37;;;;;;;2.35;1.33;;;7.40;52.80;;;;;;5099925;28;20227;-86
2023/01/09 10:56:11;;;;;;;2.10;0.90;;;7.50;53.50;;;;;;5098582;27;20200;-87
2023/01/09 10:58:38;;;;;;;3.67;1.20;;;7.60;52.00;;;;;;5104963;27;20215;-86
2023/01/09 11:01:06;;;;;;;2.88;1.23;;;7.60;51.70;;;;;;5096624;27;20200;-87
2023/01/09 11:03:33;;;;;;;2.22;0.85;;;7.70;51.00;;;;;;5096365;28;20683;-87
2023/01/09 11:06:03;;;;;;;3.22;1.40;;;7.50;52.60;;;;;;5097865;28;20197;-86
2023/01/09 11:08:33;;;;;;;4.30;1.08;;;7.60;52.30;;;;;;5106463;27;20575;-86
2023/01/09 11:11:02;;;;;;;1.92;1.27;;;7.70;52.10;;;;;;5097991;28;20212;-86
2023/01/09 11:13:31;;;;;;;2.10;1.13;;;7.70;50.80;;;;;;5099552;28;20714;-87
2023/01/09 11:16:04;;;;;;;3.08;1.40;;;7.60;51.10;;;;;;5101359;27;20199;-87
2023/01/09 11:18:32;;;;;;;3.97;1.20;;;7.70;50.90;;;;;;5100176;28;20231;-86
2023/01/09 11:21:14;;;;;;;5.45;1.42;;;7.70;46.50;;;;;;5099802;28;20204;-86
2023/01/09 11:23:41;;;;;;;1.70;1.00;;;7.60;49.90;;;;;;5100424;28;20230;-87
2023/01/09 11:26:23;;;;;;;2.88;1.50;;;7.60;51.00;;;;;;5102988;27;20231;-86
2023/01/09 11:29:06;;;;;;;2.45;1.08;;;7.60;50.00;;;;;;5107161;27;20691;-87
2023/01/09 11:31:34;;;;;;;2.85;1.17;;;7.60;49.40;;;;;;5096243;28;20660;-87
2023/01/09 11:34:01;;;;;;;2.17;0.98;;;7.40;47.90;;;;;;5103186;27;20224;-88
2023/01/09 11:36:30;;;;;;;3.35;1.10;;;7.40;50.50;;;;;;5103474;27;20562;-86
2023/01/09 11:38:58;;;;;;;3.55;1.35;;;7.60;50.70;;;;;;5098762;28;20208;-86
2023/01/09 11:41:28;;;;;;;3.03;1.13;;;7.70;49.00;;;;;;5098374;27;20668;-87
2023/01/09 11:43:57;;;;;;;1.70;1.20;;;7.90;46.60;;;;;;5103131;27;20206;-86
2023/01/09 11:46:37;;;;;;;3.33;0.90;;;7.80;46.50;;;;;;5095433;28;20200;-87
2023/01/09 11:49:06;;;;;;;2.28;1.00;;;7.70;46.50;;;;;;5102042;27;20683;-87
2023/01/09 11:51:35;;;;;;;2.83;1.13;;;7.70;46.50;;;;;;5098049;28;20200;-86
2023/01/09 11:54:20;;;;;;;2.40;0.93;;;7.80;46.60;;;;;;5097240;27;20684;-86
2023/01/09 11:56:47;;;;;;;1.90;1.20;;;7.80;46.60;;;;;;5100866;28;20207;-87
2023/01/09 11:59:17;;;;;;;1.77;1.20;;;7.80;46.50;;;;;;5097462;28;20208;-88
2023/01/09 12:02:19;;;;;;;2.40;1.27;;;7.70;46.50;;;;;;5103086;27;20669;-87
2023/01/09 12:04:53;;;;;;;1.27;1.10;;;7.70;46.50;;;;;;5094545;27;20215;-87
2023/01/09 12:07:48;;;;;;;1.23;0.80;;;7.80;46.50;;;;;;5103357;28;20203;-86
2023/01/09 12:10:41;;;;;;;2.22;0.98;;;7.90;46.60;;;;;;5091819;28;20203;-87
2023/01/09 12:13:24;;;;;;;3.10;1.17;;;7.90;45.00;;;;;;5100540;28;20223;-87
2023/01/09 12:16:00;;;;;;;2.25;1.30;;;8.00;44.30;;;;;;5103629;27;20261;-87
2023/01/09 12:18:52;;;;;;;1.52;1.00;;;8.00;43.30;;;;;;5098590;27;20228;-86
2023/01/09 12:21:32;;;;;;;1.13;1.00;;;7.90;42.70;;;;;;5102060;28;20618;-86
2023/01/09 12:24:29;;;;;;;2.63;1.30;;;8.00;43.60;;;;;;5102966;27;20239;-86
2023/01/09 12:27:13;;;;;;;2.95;1.10;;;8.00;43.70;;;;;;5103795;28;20231;-87
2023/01/09 12:30:04;;;;;;;3.97;1.20;;;8.00;42.80;;;;;;5096875;28;20287;-87
2023/01/09 12:32:42;;;;;;;2.83;1.23;;;8.00;43.00;;;;;;5099492;28;20257;-85
2023/01/09 12:35:22;;;;;;;2.05;1.20;;;7.90;41.90;;;;;;5102362;28;20200;-87
2023/01/09 12:38:10;;;;;;;3.53;2.50;;;7.80;42.10;;;;;;5097764;28;20200;-87
2023/01/09 12:40:54;;;;;;;1.85;1.00;;;7.90;42.40;;;;;;5097280;28;20203;-86
2023/01/09 12:43:33;;;;;;;3.53;1.23;;;7.90;42.40;;;;;;5100001;28;20208;-86
2023/01/09 12:46:13;;;;;;;2.80;1.40;;;8.00;41.60;;;;;;5096985;28;20229;-86
2023/01/09 12:49:08;;;;;;;1.58;0.93;;;8.00;43.00;;;;;;5100561;28;20199;-86
2023/01/09 12:51:39;;;;;;;2.28;1.10;;;8.00;43.00;;;;;;5087793;28;20655;-86
2023/01/09 12:54:13;;;;;;;2.08;1.00;;;7.90;42.90;;;;;;5102885;28;20604;-86
2023/01/09 12:56:45;;;;;;;4.47;1.13;;;7.90;43.00;;;;;;5101092;28;20204;-86
2023/01/09 12:59:29;;;;;;;3.95;0.93;;;7.90;43.30;;;;;;5100269;28;20199;-87
2023/01/09 13:02:01;;;;;;;2.20;1.00;;;7.90;43.80;;;;;;5091905;28;20208;-86
2023/01/09 13:04:33;;;;;;;2.13;1.10;;;7.90;42.00;;;;;;5093178;28;20220;-86
2023/01/09 13:07:03;;;;;;;1.73;1.20;;;8.00;43.00;;;;;;5095779;28;20223;-86
2023/01/09 13:09:38;;;;;;;4.55;1.25;;;7.90;43.70;;;;;;5094947;28;20208;-86
2023/01/09 13:12:11;;;;;;;2.35;1.17;;;8.00;42.60;;;;;;5092821;28;20203;-85
2023/01/09 13:14:49;;;;;;;3.95;1.20;;;8.00;41.20;;;;;;5097777;28;20529;-86
2023/01/09 13:17:21;;;;;;;3.75;1.30;;;8.00;42.50;;;;;;5090574;28;20675;-86
2023/01/09 13:19:48;;;;;;;2.25;1.10;;;8.00;41.50;;;;;;5091000;28;20668;-86
2023/01/09 13:22:16;;;;;;;2.03;1.10;;;8.00;42.40;;;;;;5097911;28;20211;-86
2023/01/09 13:25:06;;;;;;;2.13;1.15;;;8.10;42.80;;;;;;5098933;28;20710;-87
2023/01/09 13:27:41;;;;;;;4.35;1.40;;;8.00;41.80;;;;;;5102512;28;20205;-85
2023/01/09 13:30:20;;;;;;;3.55;1.33;;;7.90;43.00;;;;;;5100096;28;20215;-87
2023/01/09 13:32:59;;;;;;;3.47;1.67;;;7.90;43.10;;;;;;5103257;27;20207;-88
2023/01/09 13:35:27;;;;;;;4.15;1.33;;;7.90;41.70;;;;;;5099729;28;20669;-86